Aeroporto :
LOGIN :

Iscrizione | Disclaimer

   EN    FR    IT 

 










Sommario :    VFR   VFR Marginale   IFR   IFR Intensivo   IFR Molto Intensivo
Visibilità : 
Base nubi : 
>= 8 km
>= 3000ft
5 / 8 km
1000 / 3000 ft
1500m / 5 km
500 / 1000 ft
800 / 1500m
200 / 500 ft
< 800m
< 200 ft
Simboli :   Temporali  Nebbia  Neve Forte  Precipitazioni Forti  Vento > 20 kt
SIGMETs :   Varie  Temporali  Ghiacco  Turbolenza  Onda orograficha  Ceneri Vulcaniche







- Altitudine del aeroporto : 427 ft
- Codice IATA : CIA


LIRA - Roma Ciampino

ULTIMO METAR :
  • 220650Z 16005KT 090V200 9999 FEW025 18/12 Q1016

METARs OBSOLETI :
  • 220620Z 15008KT 130V190 CAVOK 17/10 Q1016
  • 220550Z 14009KT CAVOK 16/11 Q1016
  • 220520Z 14009KT CAVOK 15/11 Q1016
  • 220450Z 15007KT CAVOK 14/11 Q1016
  • 220420Z 15007KT CAVOK 14/11 Q1016

TAF TAF LIRA
Valido dal 22 a 06 ore il 23 a 06 ore UTC


220500Z 2206/2306 16007KT 9999 SCT030
BECMG 2209/2211 22010KT
TEMPO 2212/2215 SHRA
BECMG 2216/2218 VRB05KT
Nessun NOTAM noto per questo aeroporto.
1 SIGMET conosciuto per la FIR Roma (LIRR) :
 
Turbolenza severa
LIRR SIGMET 2 VALID 220430/220830 LIIB
LIRR ROMA FIR SEV TURB FCST WI N3833 E00854 - N4201 E01345 - N4122 E01425 - N4112 E01507 - N3901 E01622 - N3856 E01724 - N3631 E01542 - N3630 E01125 - N3728 E01129 - N3833 E00854 FL270/380 STNR NC=



MetMap, La meteo Aeronautica in un colpo d'occhio ! - Copyright ORBIFLY Dicembre 2007 - Disclaimer

ORBIFLY MET'MAP TEAM :

Programmazione e sviluppo : Alexandra Zaïnal
Concezione e sviluppo : Baudouin d'Aumeries
Co-Programmazione e sviluppo : Marc-Olivier Méhu
Supporto tecnico e logistico : Manuel Goepfert
Aiuto per la traduzione : Arnaldo La Scala

Contatto : metmap@orbifly.com




FONTI E CREDITI :

   NOAA